Portada
METAR-TAF:

METAR-TAF

Aeroports :

Aeroport Internacional Maiquetía Simón Bolívar

Caracas, Veneçuela

latitud: 10-36N, longitud: 066-59W, altitud: 43 m

Observació

L'informe es va fer fa 19 minuts, a les 00:00 UTC
Vent calma
Temperatura 27°C
Humitat 79%
Pressió 1011 hPa
Visibilitat 10 km o més
Escasses núvols a una alçada de 1600 ft

METAR: SVMI 210000Z 00000KT 9999 FEW016 27/23 Q1011

Hora: 20:19 (00:19 UTC)

Pronòstic

L'informe es va fer fa 2 hores i 19 minuts, a les 22:00 UTC
Pronòstic vàlid del 21 a les 00 UTC al 22 a les 00 UTC
Vent 3 kt del Est
Visibilitat 10 km o més
Escasses núvols a una alçada de 1600 ft
Temporalment
l' 21 a les 01 UTC al 21 a les 05 UTC
Vent kt del Nord
Visibilitat 10 km o més
sense núvols per sota de 1500 mi sense presència de cumulonimbus.

TAF: SVMI 202200Z 2100/2200 09003KT 9999 FEW016 TX33/19Z TN24/08Z TEMPO 2101/2105 00000KT CAVOK

Observacions i pronòstics meteorològics de més de 4000 aeroports (METAR i TAF).

Les estacions disponibles són els punts grocs i vermells al mapa.

Posi el ratolí al punt desitjat per veure el nom de l'estació.

Feu clic per veure les observacions i els pronòstics meteorològics.

Per canviar el mapa: feu clic els botons verds amb una creu de color negre per apropar; al botó verd amb un guió per allunyar la imatge; o en les fletxes verdes per a mapes adjacents.


METAR-TAF: